• Join FlightAware (Why Join?)
  • Login
  • US Flag 
01:04AM EST


 

Airport Tracker/Info


-or-


 

Live Flight TrackerFlight Track Log ✈ N680AN ✈ 25-Apr-2013 ✈ KDFW - KMCO

Flight Track Log - Related Links

Times and Time Zones

All times are in EDT time to prevent confusion due to time zone crossing. See the N680AN flight status page for this flight to view local times or setup timezone preferences in your user account.

Time Position Orientation Groundspeed Altitude Reporting Facility
EDT Latitude Longitude Course Direction KTS MPH feet Rate Location/Type
10:05PM 32.8097 -97.0303 90° East 188 216 5,100  Level Fort Worth Center
10:06PM 32.6833 -96.9093 90° East  Level FlightAware Approximate
10:06PM 32.7681 -96.9861 138° Southeast 213 245 7,900  Level Fort Worth Center
10:07PM 32.7004 -96.7490 68° East  Level FlightAware Approximate
10:07PM 32.7572 -96.8922 98° East 228 262 10,700  Level Fort Worth Center
10:08PM 32.7512 -96.5964 68° East  Level FlightAware Approximate
10:08PM 32.7817 -96.7708 76° East 276 318 13,400  Level Fort Worth Center
10:09PM 32.8067 -96.4460 65° Northeast  Level FlightAware Approximate
10:09PM 32.8039 -96.6619 76° East 347 399 15,900  Level Fort Worth Center
10:10PM 32.8546 -96.2935 77° East  Level FlightAware Approximate
10:10PM 32.8322 -96.5183 77° East 398 458 17,800  Level Fort Worth Center
10:11PM 32.8667 -96.1308 90° East  Level FlightAware Approximate
10:11PM 32.8544 -96.3944 78° East 418 481 20,200  Level Fort Worth Center
10:12PM 32.8697 -96.2361 83° East 432 497 22,600 2,220 Climbing Fort Worth Center
10:13PM 32.8725 -96.0925 89° East 457 526 24,700 1,980 Climbing Fort Worth Center
10:14PM 32.8747 -95.9244 89° East 463 533 26,600 1,740 Climbing Fort Worth Center
10:15PM 32.8789 -95.7586 88° East 477 549 28,200 1,500 Climbing Fort Worth Center
10:16PM 32.8786 -95.5903 90° East 494 568 29,700 1,440 Climbing Fort Worth Center
10:17PM 32.8822 -95.4147 89° East 518 596 31,100 1,500 Climbing Fort Worth Center
10:18PM 32.8922 -95.2636 85° East 518 596 32,800 1,680 Climbing Fort Worth Center
10:19PM 32.9183 -95.0872 80° East 518 596 34,500 1,560 Climbing Fort Worth Center
10:20PM 32.9486 -94.9181 78° East 524 603 36,000 1,380 Climbing Fort Worth Center
10:21PM 32.9761 -94.7414 79° East 524 603 37,300 1,200 Climbing Fort Worth Center
10:22PM 32.9994 -94.5650 81° East 524 603 38,400 840 Climbing Fort Worth Center
10:23PM 33.0289 -94.3931 78° East 524 603 39,000 300 Climbing Fort Worth Center
10:24PM 33.0517 -94.2189 81° East 529 609 39,000  Level Fort Worth Center
10:25PM 33.0764 -94.0419 80° East 534 615 39,000  Level Fort Worth Center
10:26PM 33.1042 -93.8450 80° East 534 615 39,000  Level Fort Worth Center
10:27PM 33.1303 -93.6678 80° East 539 620 39,000  Level Fort Worth Center
10:28PM 33.1544 -93.4956 80° East 539 620 39,000  Level Fort Worth Center
10:29PM 33.1800 -93.3208 80° East 539 620 39,000  Level Fort Worth Center
10:30PM 33.2036 -93.1458 81° East 534 615 39,000  Level Fort Worth Center
10:31PM 33.2267 -92.9733 81° East 528 608 39,000  Level Fort Worth Center
10:32PM 33.2517 -92.7933 81° East 528 608 39,000  Level Fort Worth Center
10:33PM 33.2344 -92.6181 97° East 523 602 39,000  Level Fort Worth Center
10:34PM 33.1983 -92.4411 104° East 528 608 39,000  Level Fort Worth Center
10:36PM 33.1486 -92.2281 106° East 551 634 39,000  Level Memphis Center
10:37PM 33.1136 -92.0536 103° East 546 628 39,000  Level Memphis Center
10:38PM 33.0739 -91.8769 105° East 546 628 39,000  Level Memphis Center
10:39PM 33.0364 -91.7028 104° East 546 628 39,000  Level Memphis Center
10:40PM 33.0006 -91.5289 104° East 546 628 39,000  Level Memphis Center
10:41PM 32.9603 -91.3550 105° East 541 623 39,000  Level Memphis Center
10:42PM 32.9239 -91.1839 104° East 534 615 39,000  Level Memphis Center
10:43PM 32.8853 -91.0103 105° East 534 615 39,000  Level Memphis Center
10:44PM 32.8483 -90.8394 104° East 534 615 39,000  Level Memphis Center
10:45PM 32.8114 -90.6639 104° East 534 615 39,000  Level Memphis Center
10:46PM 32.7719 -90.4956 106° East 534 615 39,000  Level Memphis Center
10:47PM 32.7344 -90.3253 105° East 534 615 39,000  Level Memphis Center
10:48PM 32.6947 -90.1525 105° East 534 615 39,000  Level Memphis Center
10:49PM 32.6589 -89.9994 106° East 534 615 39,000  Level Memphis Center
10:50PM 32.6206 -89.8269 105° East 534 615 39,000  Level Memphis Center
10:51PM 32.5781 -89.6572 107° East 534 615 39,000  Level Memphis Center
10:52PM 32.5394 -89.4850 105° East 534 615 39,000  Level Memphis Center
10:53PM 32.5006 -89.3153 105° East 534 615 39,000  Level Memphis Center
10:54PM 32.4614 -89.1458 105° East 529 609 39,000  Level Memphis Center
10:55PM 32.4200 -88.9767 106° East 534 615 39,000  Level Memphis Center
10:56PM 32.3803 -88.8050 105° East 534 615 39,000  Level Memphis Center
10:57PM 32.3383 -88.6361 106° East 534 615 39,000  Level Memphis Center
10:59PM 32.2303 -88.2372 108° East 535 616 39,000  Level Atlanta Center
11:00PM 32.1881 -88.0711 107° East 535 616 39,000  Level Atlanta Center
11:01PM 32.1431 -87.9069 108° East 527 606 39,000  Level Atlanta Center
11:02PM 32.0981 -87.7408 108° East 527 606 39,000  Level Atlanta Center
11:03PM 32.0486 -87.5747 109° East 527 606 39,000  Level Atlanta Center
11:04PM 32.0033 -87.4089 108° East 532 612 39,000  Level Atlanta Center
11:05PM 31.9597 -87.2431 107° East 527 606 39,000  Level Atlanta Center
11:06PM 31.9136 -87.0800 108° East 527 606 39,000  Level Atlanta Center
11:07PM 31.8694 -86.9294 109° East 527 606 39,000  Level Atlanta Center
11:09PM 31.7753 -86.6267 110° East 523 602 39,000  Level Jacksonville Center
11:10PM 31.7061 -86.4944 122° Southeast 518 596 39,000  Level Jacksonville Center
11:11PM 31.6267 -86.3497 123° Southeast 523 602 39,000  Level Jacksonville Center
11:12PM 31.5428 -86.2078 125° Southeast 523 602 39,000  Level Jacksonville Center
11:13PM 31.4608 -86.0686 125° Southeast 525 604 39,000  Level Jacksonville Center
11:14PM 31.3764 -85.9294 125° Southeast 525 604 39,000  Level Jacksonville Center
11:15PM 31.2942 -85.7906 125° Southeast 525 604 39,000  Level Jacksonville Center
11:16PM 31.2139 -85.6447 123° Southeast 525 604 39,000  Level Jacksonville Center
11:17PM 31.1311 -85.5064 125° Southeast 525 604 39,000  Level Jacksonville Center
11:18PM 31.0464 -85.3633 125° Southeast 530 610 39,000  Level Jacksonville Center
11:19PM 30.9553 -85.2158 126° Southeast 523 602 39,000  Level Jacksonville Center
11:20PM 30.8700 -85.0733 125° Southeast 523 602 39,000 -240 Level Jacksonville Center
11:21PM 30.7847 -84.9333 125° Southeast 523 602 38,600 -660 Descending Jacksonville Center
11:22PM 30.7011 -84.7939 125° Southeast 523 602 37,700 -900 Descending Jacksonville Center
11:23PM 30.6175 -84.6572 125° Southeast 523 602 36,800 -900 Descending Jacksonville Center
11:24PM 30.5317 -84.5206 126° Southeast 523 602 35,900 -900 Descending Jacksonville Center
11:25PM 30.4478 -84.3842 125° Southeast 523 602 35,100 -480 Descending Jacksonville Center
11:26PM 30.3636 -84.2528 127° Southeast 523 602 35,000 -60 Descending Jacksonville Center
11:27PM 30.2814 -84.1169 125° Southeast 523 602 35,000 -180 Level Jacksonville Center
11:28PM 30.1972 -83.9814 126° Southeast 523 602 34,700 -540 Descending Jacksonville Center
11:29PM 30.1147 -83.8458 125° Southeast 523 602 34,000 -780 Descending Jacksonville Center
11:30PM 30.0300 -83.7131 126° Southeast 523 602 33,200 -840 Descending Jacksonville Center
11:31PM 29.9453 -83.5806 126° Southeast 523 602 32,400 -840 Descending Jacksonville Center
11:32PM 29.8603 -83.4458 126° Southeast 523 602 31,600 -780 Descending Jacksonville Center
11:33PM 29.7753 -83.3136 127° Southeast 523 602 30,900 -780 Descending Jacksonville Center
11:34PM 29.6919 -83.1769 125° Southeast 528 608 30,100 -1,020 Descending Jacksonville Center
11:35PM 29.6047 -83.0431 127° Southeast 520 598 28,900 -1,620 Descending Jacksonville Center
11:36PM 29.5169 -82.9092 127° Southeast 521 600 27,000 -1,980 Descending Jacksonville Center
11:37PM 29.4419 -82.7900 126° Southeast 521 600 25,000 -2,100 Descending Jacksonville Center
11:38PM 29.3622 -82.6686 127° Southeast 507 583 22,800 -2,220 Descending Jacksonville Center
11:39PM 29.2889 -82.5519 126° Southeast 478 550 20,600 -2,100 Descending Jacksonville Center
11:40PM 29.2136 -82.4381 127° Southeast 461 531 18,600 -1,920 Descending Jacksonville Center
11:41PM 29.1442 -82.3292 126° Southeast 442 509 16,800 -1,920 Descending Jacksonville Center
11:42PM 29.0706 -82.2228 128° Southeast 436 502 14,800 -1,980 Descending Jacksonville Center
11:43PM 29.0053 -82.1161 125° Southeast 422 486 12,900 -1,860 Descending Jacksonville Center
11:44PM 28.9317 -82.0031 127° Southeast 416 479 11,100 -960 Descending Jacksonville Center
11:45PM 28.8725 -81.9133 127° Southeast 391 450 11,000 -480 Descending Jacksonville Center
11:45PM 28.8500 -81.8667 119° Southeast 336 387 10,400 -1,080 Descending Orlando TRACON
11:46PM 28.8000 -81.7833 124° Southeast 297 342 9,300 -1,380 Descending Orlando TRACON
11:47PM 28.7667 -81.6833 111° Southeast 295 339 7,700 -1,560 Descending Orlando TRACON
11:48PM 28.7333 -81.6000 115° Southeast 287 330 6,200 -1,440 Descending Orlando TRACON
11:49PM 28.7167 -81.5167 103° East 268 308 4,900 -960 Descending Orlando TRACON
11:50PM 28.6833 -81.4500 120° Southeast 233 268 4,300 -900 Descending Orlando TRACON
11:51PM 28.6500 -81.4000 127° Southeast 221 254 3,200 -900 Descending Orlando TRACON
11:52PM 28.6000 -81.3667 150° Southeast 208 239 2,600 -600 Descending Orlando TRACON